sensor_id;sensor_type;location;lat;lon;timestamp;temperature;humidity
2861;DHT22;1438;50.922;6.704;2022-10-18T00:01:02;15.00;99.90
2861;DHT22;1438;50.922;6.704;2022-10-18T00:03:28;15.00;99.90
2861;DHT22;1438;50.922;6.704;2022-10-18T00:05:54;15.10;99.90
2861;DHT22;1438;50.922;6.704;2022-10-18T00:08:19;15.10;99.90
2861;DHT22;1438;50.922;6.704;2022-10-18T00:10:46;15.10;99.90
2861;DHT22;1438;50.922;6.704;2022-10-18T00:13:12;15.10;99.90
2861;DHT22;1438;50.922;6.704;2022-10-18T00:15:37;15.10;99.90
2861;DHT22;1438;50.922;6.704;2022-10-18T00:18:03;15.10;99.90
2861;DHT22;1438;50.922;6.704;2022-10-18T00:20:29;15.00;99.90
2861;DHT22;1438;50.922;6.704;2022-10-18T00:22:54;14.90;99.90
2861;DHT22;1438;50.922;6.704;2022-10-18T00:25:20;15.00;99.90
2861;DHT22;1438;50.922;6.704;2022-10-18T00:27:46;15.00;99.90
2861;DHT22;1438;50.922;6.704;2022-10-18T00:30:11;15.00;99.90
2861;DHT22;1438;50.922;6.704;2022-10-18T00:32:41;15.00;99.90
2861;DHT22;1438;50.922;6.704;2022-10-18T00:35:07;15.10;99.90
2861;DHT22;1438;50.922;6.704;2022-10-18T00:37:34;15.10;99.90
2861;DHT22;1438;50.922;6.704;2022-10-18T00:40:00;15.10;99.90
2861;DHT22;1438;50.922;6.704;2022-10-18T00:42:29;15.00;99.90
2861;DHT22;1438;50.922;6.704;2022-10-18T00:45:14;15.00;99.90
2861;DHT22;1438;50.922;6.704;2022-10-18T00:47:41;14.90;99.90
2861;DHT22;1438;50.922;6.704;2022-10-18T00:50:08;15.00;99.90
2861;DHT22;1438;50.922;6.704;2022-10-18T00:52:46;15.10;99.90
2861;DHT22;1438;50.922;6.704;2022-10-18T00:55:13;15.00;99.90
2861;DHT22;1438;50.922;6.704;2022-10-18T00:57:41;15.10;99.90
2861;DHT22;1438;50.922;6.704;2022-10-18T01:00:07;15.10;99.90
2861;DHT22;1438;50.922;6.704;2022-10-18T01:02:39;15.10;99.90
2861;DHT22;1438;50.922;6.704;2022-10-18T01:05:05;15.10;99.90
2861;DHT22;1438;50.922;6.704;2022-10-18T01:07:37;15.10;99.90
2861;DHT22;1438;50.922;6.704;2022-10-18T01:10:29;15.10;99.90
2861;DHT22;1438;50.922;6.704;2022-10-18T01:13:40;15.10;99.90
2861;DHT22;1438;50.922;6.704;2022-10-18T01:21:31;14.90;99.90
2861;DHT22;1438;50.922;6.704;2022-10-18T01:29:44;14.90;99.90
2861;DHT22;1438;50.922;6.704;2022-10-18T01:32:23;15.00;99.90
2861;DHT22;1438;50.922;6.704;2022-10-18T01:34:55;15.00;99.90
2861;DHT22;1438;50.922;6.704;2022-10-18T01:37:23;15.10;99.90
2861;DHT22;1438;50.922;6.704;2022-10-18T01:39:52;15.10;99.90
2861;DHT22;1438;50.922;6.704;2022-10-18T01:42:19;15.10;99.90
2861;DHT22;1438;50.922;6.704;2022-10-18T01:44:46;15.10;99.90
2861;DHT22;1438;50.922;6.704;2022-10-18T01:47:13;15.00;99.90
2861;DHT22;1438;50.922;6.704;2022-10-18T01:49:39;15.00;99.90
2861;DHT22;1438;50.922;6.704;2022-10-18T01:52:05;15.10;99.90
2861;DHT22;1438;50.922;6.704;2022-10-18T01:54:36;15.10;99.90
2861;DHT22;1438;50.922;6.704;2022-10-18T01:57:39;15.10;99.90
2861;DHT22;1438;50.922;6.704;2022-10-18T02:00:22;15.10;99.90
2861;DHT22;1438;50.922;6.704;2022-10-18T02:08:14;15.10;99.90
2861;DHT22;1438;50.922;6.704;2022-10-18T02:10:45;15.10;99.90
2861;DHT22;1438;50.922;6.704;2022-10-18T02:13:15;15.20;99.90
2861;DHT22;1438;50.922;6.704;2022-10-18T02:15:43;15.20;99.90
2861;DHT22;1438;50.922;6.704;2022-10-18T02:18:15;15.20;99.90
2861;DHT22;1438;50.922;6.704;2022-10-18T02:20:41;15.10;99.90
2861;DHT22;1438;50.922;6.704;2022-10-18T02:23:07;15.10;99.90
2861;DHT22;1438;50.922;6.704;2022-10-18T02:25:35;15.10;99.90
2861;DHT22;1438;50.922;6.704;2022-10-18T02:28:02;15.10;99.90
2861;DHT22;1438;50.922;6.704;2022-10-18T02:30:56;15.10;99.90
2861;DHT22;1438;50.922;6.704;2022-10-18T02:33:39;15.10;99.90
2861;DHT22;1438;50.922;6.704;2022-10-18T02:36:17;15.20;99.90
2861;DHT22;1438;50.922;6.704;2022-10-18T02:38:45;15.20;99.90
2861;DHT22;1438;50.922;6.704;2022-10-18T02:41:11;15.20;99.90
2861;DHT22;1438;50.922;6.704;2022-10-18T02:43:36;15.20;99.90
2861;DHT22;1438;50.922;6.704;2022-10-18T02:46:02;15.20;99.90
2861;DHT22;1438;50.922;6.704;2022-10-18T02:48:28;15.20;99.90
2861;DHT22;1438;50.922;6.704;2022-10-18T02:50:53;15.20;99.90
2861;DHT22;1438;50.922;6.704;2022-10-18T02:53:19;15.20;99.90
2861;DHT22;1438;50.922;6.704;2022-10-18T02:55:45;15.20;99.90
2861;DHT22;1438;50.922;6.704;2022-10-18T02:58:10;15.10;99.90
2861;DHT22;1438;50.922;6.704;2022-10-18T03:00:36;15.20;99.90
2861;DHT22;1438;50.922;6.704;2022-10-18T03:03:01;15.10;99.90
2861;DHT22;1438;50.922;6.704;2022-10-18T03:05:27;15.10;99.90
2861;DHT22;1438;50.922;6.704;2022-10-18T03:07:55;15.20;99.90
2861;DHT22;1438;50.922;6.704;2022-10-18T03:10:22;15.10;99.90
2861;DHT22;1438;50.922;6.704;2022-10-18T03:12:47;15.20;99.90
2861;DHT22;1438;50.922;6.704;2022-10-18T03:15:13;15.10;99.90
2861;DHT22;1438;50.922;6.704;2022-10-18T03:17:38;15.20;99.90
2861;DHT22;1438;50.922;6.704;2022-10-18T03:20:04;15.20;99.90
2861;DHT22;1438;50.922;6.704;2022-10-18T03:22:30;15.20;99.90
2861;DHT22;1438;50.922;6.704;2022-10-18T03:24:55;15.20;99.90
2861;DHT22;1438;50.922;6.704;2022-10-18T03:27:21;15.20;99.90
2861;DHT22;1438;50.922;6.704;2022-10-18T03:29:47;15.20;99.90
2861;DHT22;1438;50.922;6.704;2022-10-18T03:32:12;15.20;99.90
2861;DHT22;1438;50.922;6.704;2022-10-18T03:34:38;15.20;99.90
2861;DHT22;1438;50.922;6.704;2022-10-18T03:37:03;15.20;99.90
2861;DHT22;1438;50.922;6.704;2022-10-18T03:39:29;15.20;99.90
2861;DHT22;1438;50.922;6.704;2022-10-18T03:41:54;15.20;99.90
2861;DHT22;1438;50.922;6.704;2022-10-18T03:44:20;15.20;99.90
2861;DHT22;1438;50.922;6.704;2022-10-18T03:46:45;15.20;99.90
2861;DHT22;1438;50.922;6.704;2022-10-18T03:49:11;15.20;99.90
2861;DHT22;1438;50.922;6.704;2022-10-18T03:51:36;15.10;99.90
2861;DHT22;1438;50.922;6.704;2022-10-18T03:54:02;15.10;99.90
2861;DHT22;1438;50.922;6.704;2022-10-18T03:56:28;15.10;99.90
2861;DHT22;1438;50.922;6.704;2022-10-18T03:58:53;15.00;99.90
2861;DHT22;1438;50.922;6.704;2022-10-18T04:01:19;15.10;99.90
2861;DHT22;1438;50.922;6.704;2022-10-18T04:03:44;15.10;99.90
2861;DHT22;1438;50.922;6.704;2022-10-18T04:06:10;15.10;99.90
2861;DHT22;1438;50.922;6.704;2022-10-18T04:08:36;15.10;99.90
2861;DHT22;1438;50.922;6.704;2022-10-18T04:11:07;15.10;99.90
2861;DHT22;1438;50.922;6.704;2022-10-18T04:13:35;15.00;99.90
2861;DHT22;1438;50.922;6.704;2022-10-18T04:16:00;15.10;99.90
2861;DHT22;1438;50.922;6.704;2022-10-18T04:18:26;15.00;99.90
2861;DHT22;1438;50.922;6.704;2022-10-18T04:20:51;15.00;99.90
2861;DHT22;1438;50.922;6.704;2022-10-18T04:23:17;15.00;99.90
2861;DHT22;1438;50.922;6.704;2022-10-18T04:25:43;14.90;99.90
2861;DHT22;1438;50.922;6.704;2022-10-18T04:28:08;14.90;99.90
2861;DHT22;1438;50.922;6.704;2022-10-18T04:30:34;14.90;99.90
2861;DHT22;1438;50.922;6.704;2022-10-18T04:32:59;14.90;99.90
2861;DHT22;1438;50.922;6.704;2022-10-18T04:35:25;15.00;99.90
2861;DHT22;1438;50.922;6.704;2022-10-18T04:37:53;14.90;99.90
2861;DHT22;1438;50.922;6.704;2022-10-18T04:40:18;15.00;99.90
2861;DHT22;1438;50.922;6.704;2022-10-18T04:42:44;15.00;99.90
2861;DHT22;1438;50.922;6.704;2022-10-18T04:45:10;15.00;99.90
2861;DHT22;1438;50.922;6.704;2022-10-18T04:47:36;15.10;99.90
2861;DHT22;1438;50.922;6.704;2022-10-18T04:50:02;15.10;99.90
2861;DHT22;1438;50.922;6.704;2022-10-18T04:52:27;15.10;99.90
2861;DHT22;1438;50.922;6.704;2022-10-18T04:54:53;15.00;99.90
2861;DHT22;1438;50.922;6.704;2022-10-18T04:57:19;15.10;99.90
2861;DHT22;1438;50.922;6.704;2022-10-18T04:59:44;15.10;99.90
2861;DHT22;1438;50.922;6.704;2022-10-18T05:02:10;15.00;99.90
2861;DHT22;1438;50.922;6.704;2022-10-18T05:04:35;15.00;99.90
2861;DHT22;1438;50.922;6.704;2022-10-18T05:07:01;15.00;99.90
2861;DHT22;1438;50.922;6.704;2022-10-18T05:09:27;15.00;99.90
2861;DHT22;1438;50.922;6.704;2022-10-18T05:11:53;15.00;99.90
2861;DHT22;1438;50.922;6.704;2022-10-18T05:14:18;15.10;99.90
2861;DHT22;1438;50.922;6.704;2022-10-18T05:16:44;15.10;99.90
2861;DHT22;1438;50.922;6.704;2022-10-18T05:19:09;15.20;99.90
2861;DHT22;1438;50.922;6.704;2022-10-18T05:21:35;15.10;99.90
2861;DHT22;1438;50.922;6.704;2022-10-18T05:24:01;15.10;99.90
2861;DHT22;1438;50.922;6.704;2022-10-18T05:26:26;15.10;99.90
2861;DHT22;1438;50.922;6.704;2022-10-18T05:28:52;15.10;99.90
2861;DHT22;1438;50.922;6.704;2022-10-18T05:31:17;15.00;99.90
2861;DHT22;1438;50.922;6.704;2022-10-18T05:33:43;15.10;99.90
2861;DHT22;1438;50.922;6.704;2022-10-18T05:36:09;15.20;99.90
2861;DHT22;1438;50.922;6.704;2022-10-18T05:38:38;15.10;99.90
2861;DHT22;1438;50.922;6.704;2022-10-18T05:41:04;15.10;99.90
2861;DHT22;1438;50.922;6.704;2022-10-18T05:43:30;15.10;99.90
2861;DHT22;1438;50.922;6.704;2022-10-18T05:45:56;15.10;99.90
2861;DHT22;1438;50.922;6.704;2022-10-18T05:48:21;15.10;99.90
2861;DHT22;1438;50.922;6.704;2022-10-18T05:50:47;15.10;99.90
2861;DHT22;1438;50.922;6.704;2022-10-18T05:53:12;15.10;99.90
2861;DHT22;1438;50.922;6.704;2022-10-18T05:55:38;15.10;99.90
2861;DHT22;1438;50.922;6.704;2022-10-18T05:58:03;15.10;99.90
2861;DHT22;1438;50.922;6.704;2022-10-18T06:00:29;15.10;99.90
2861;DHT22;1438;50.922;6.704;2022-10-18T06:02:55;15.20;99.90
2861;DHT22;1438;50.922;6.704;2022-10-18T06:05:20;15.20;99.90
2861;DHT22;1438;50.922;6.704;2022-10-18T06:07:46;15.20;99.90
2861;DHT22;1438;50.922;6.704;2022-10-18T06:10:12;15.30;99.90
2861;DHT22;1438;50.922;6.704;2022-10-18T06:12:37;15.30;99.90
2861;DHT22;1438;50.922;6.704;2022-10-18T06:15:03;15.30;99.90
2861;DHT22;1438;50.922;6.704;2022-10-18T06:17:29;15.20;99.90
2861;DHT22;1438;50.922;6.704;2022-10-18T06:19:55;15.20;99.90
2861;DHT22;1438;50.922;6.704;2022-10-18T06:22:20;15.20;99.90
2861;DHT22;1438;50.922;6.704;2022-10-18T06:24:46;15.20;99.90
2861;DHT22;1438;50.922;6.704;2022-10-18T06:27:11;15.20;99.90
2861;DHT22;1438;50.922;6.704;2022-10-18T06:29:38;15.30;99.90
2861;DHT22;1438;50.922;6.704;2022-10-18T06:32:05;15.30;99.90
2861;DHT22;1438;50.922;6.704;2022-10-18T06:34:31;15.30;99.90
2861;DHT22;1438;50.922;6.704;2022-10-18T06:36:57;15.30;99.90
2861;DHT22;1438;50.922;6.704;2022-10-18T06:39:23;15.30;99.90
2861;DHT22;1438;50.922;6.704;2022-10-18T06:41:48;15.30;99.90
2861;DHT22;1438;50.922;6.704;2022-10-18T06:44:14;15.30;99.90
2861;DHT22;1438;50.922;6.704;2022-10-18T06:46:41;15.30;99.90
2861;DHT22;1438;50.922;6.704;2022-10-18T06:49:07;15.30;99.90
2861;DHT22;1438;50.922;6.704;2022-10-18T06:51:33;15.30;99.90
2861;DHT22;1438;50.922;6.704;2022-10-18T06:53:59;15.30;99.90
2861;DHT22;1438;50.922;6.704;2022-10-18T06:56:24;15.20;99.90
2861;DHT22;1438;50.922;6.704;2022-10-18T06:58:50;15.20;99.90
2861;DHT22;1438;50.922;6.704;2022-10-18T07:01:17;15.20;99.90
2861;DHT22;1438;50.922;6.704;2022-10-18T07:03:44;15.30;99.90
2861;DHT22;1438;50.922;6.704;2022-10-18T07:06:11;15.30;99.90
2861;DHT22;1438;50.922;6.704;2022-10-18T07:08:38;15.30;99.90
2861;DHT22;1438;50.922;6.704;2022-10-18T07:11:05;15.40;99.90
2861;DHT22;1438;50.922;6.704;2022-10-18T07:13:31;15.40;99.90
2861;DHT22;1438;50.922;6.704;2022-10-18T07:16:09;15.40;99.90
2861;DHT22;1438;50.922;6.704;2022-10-18T07:18:37;15.40;99.90
2861;DHT22;1438;50.922;6.704;2022-10-18T07:21:08;15.40;99.90
2861;DHT22;1438;50.922;6.704;2022-10-18T07:23:36;15.50;99.90
2861;DHT22;1438;50.922;6.704;2022-10-18T07:26:03;15.40;99.90
2861;DHT22;1438;50.922;6.704;2022-10-18T07:28:29;15.50;99.90
2861;DHT22;1438;50.922;6.704;2022-10-18T07:30:55;15.50;99.90
2861;DHT22;1438;50.922;6.704;2022-10-18T07:33:21;15.50;99.90
2861;DHT22;1438;50.922;6.704;2022-10-18T07:35:47;15.50;99.90
2861;DHT22;1438;50.922;6.704;2022-10-18T07:38:13;15.50;99.90
2861;DHT22;1438;50.922;6.704;2022-10-18T07:40:38;15.50;99.90
2861;DHT22;1438;50.922;6.704;2022-10-18T07:43:04;15.50;99.90
2861;DHT22;1438;50.922;6.704;2022-10-18T07:45:30;15.50;99.90
2861;DHT22;1438;50.922;6.704;2022-10-18T07:47:56;15.50;99.90
2861;DHT22;1438;50.922;6.704;2022-10-18T07:50:22;15.60;99.90
2861;DHT22;1438;50.922;6.704;2022-10-18T07:52:48;15.50;99.90
2861;DHT22;1438;50.922;6.704;2022-10-18T07:55:14;15.60;99.90
2861;DHT22;1438;50.922;6.704;2022-10-18T07:57:39;15.60;99.90
2861;DHT22;1438;50.922;6.704;2022-10-18T08:00:06;15.60;99.90
2861;DHT22;1438;50.922;6.704;2022-10-18T08:02:33;15.60;99.90
2861;DHT22;1438;50.922;6.704;2022-10-18T08:04:59;15.70;99.90
2861;DHT22;1438;50.922;6.704;2022-10-18T08:07:25;15.60;99.90
2861;DHT22;1438;50.922;6.704;2022-10-18T08:09:50;15.70;99.90
2861;DHT22;1438;50.922;6.704;2022-10-18T08:12:16;15.70;99.90
2861;DHT22;1438;50.922;6.704;2022-10-18T08:14:42;15.60;99.90
2861;DHT22;1438;50.922;6.704;2022-10-18T08:17:07;15.70;99.90
2861;DHT22;1438;50.922;6.704;2022-10-18T08:19:33;15.80;99.90
2861;DHT22;1438;50.922;6.704;2022-10-18T08:21:58;15.70;99.90
2861;DHT22;1438;50.922;6.704;2022-10-18T08:24:24;15.70;99.90
2861;DHT22;1438;50.922;6.704;2022-10-18T08:26:52;15.70;99.90
2861;DHT22;1438;50.922;6.704;2022-10-18T08:29:17;15.70;99.90
2861;DHT22;1438;50.922;6.704;2022-10-18T08:31:43;15.80;99.90
2861;DHT22;1438;50.922;6.704;2022-10-18T08:34:09;15.70;99.90
2861;DHT22;1438;50.922;6.704;2022-10-18T08:36:34;15.70;99.90
2861;DHT22;1438;50.922;6.704;2022-10-18T08:39:00;15.90;99.90
2861;DHT22;1438;50.922;6.704;2022-10-18T08:44:06;15.80;99.90
2861;DHT22;1438;50.922;6.704;2022-10-18T08:46:54;15.90;99.90
2861;DHT22;1438;50.922;6.704;2022-10-18T08:49:27;15.90;99.90
2861;DHT22;1438;50.922;6.704;2022-10-18T08:51:55;15.90;99.90
2861;DHT22;1438;50.922;6.704;2022-10-18T09:05:20;16.00;99.90
2861;DHT22;1438;50.922;6.704;2022-10-18T09:08:05;16.00;99.90
2861;DHT22;1438;50.922;6.704;2022-10-18T09:13:35;16.10;99.90
2861;DHT22;1438;50.922;6.704;2022-10-18T09:16:09;16.00;99.90
2861;DHT22;1438;50.922;6.704;2022-10-18T09:19:15;16.10;99.90
2861;DHT22;1438;50.922;6.704;2022-10-18T09:21:51;16.20;99.90
2861;DHT22;1438;50.922;6.704;2022-10-18T09:24:40;16.20;99.90
2861;DHT22;1438;50.922;6.704;2022-10-18T09:27:17;16.30;99.90
2861;DHT22;1438;50.922;6.704;2022-10-18T09:30:42;16.20;99.90
2861;DHT22;1438;50.922;6.704;2022-10-18T09:35:56;16.30;99.90
2861;DHT22;1438;50.922;6.704;2022-10-18T09:38:45;16.50;99.90
2861;DHT22;1438;50.922;6.704;2022-10-18T09:41:19;16.60;99.90
2861;DHT22;1438;50.922;6.704;2022-10-18T09:44:04;16.60;99.90
2861;DHT22;1438;50.922;6.704;2022-10-18T09:46:41;16.70;99.90
2861;DHT22;1438;50.922;6.704;2022-10-18T09:49:22;16.70;99.90
2861;DHT22;1438;50.922;6.704;2022-10-18T09:51:50;16.70;99.90
2861;DHT22;1438;50.922;6.704;2022-10-18T09:59:41;16.80;99.90
2861;DHT22;1438;50.922;6.704;2022-10-18T10:02:12;16.90;99.90
2861;DHT22;1438;50.922;6.704;2022-10-18T10:04:38;17.10;99.90
2861;DHT22;1438;50.922;6.704;2022-10-18T10:07:08;17.10;99.90
2861;DHT22;1438;50.922;6.704;2022-10-18T10:09:47;17.30;99.90
2861;DHT22;1438;50.922;6.704;2022-10-18T10:14:54;17.30;99.90
2861;DHT22;1438;50.922;6.704;2022-10-18T10:17:23;17.30;99.90
2861;DHT22;1438;50.922;6.704;2022-10-18T10:22:49;17.20;99.90
2861;DHT22;1438;50.922;6.704;2022-10-18T10:25:24;17.10;99.90
2861;DHT22;1438;50.922;6.704;2022-10-18T10:27:53;17.20;99.90
2861;DHT22;1438;50.922;6.704;2022-10-18T10:30:28;17.20;99.90
2861;DHT22;1438;50.922;6.704;2022-10-18T10:32:55;17.10;99.90
2861;DHT22;1438;50.922;6.704;2022-10-18T10:35:35;17.10;99.90
2861;DHT22;1438;50.922;6.704;2022-10-18T10:38:01;17.20;99.90
2861;DHT22;1438;50.922;6.704;2022-10-18T10:40:33;17.30;99.90
2861;DHT22;1438;50.922;6.704;2022-10-18T10:43:23;17.30;99.90
2861;DHT22;1438;50.922;6.704;2022-10-18T10:48:23;17.30;99.90
2861;DHT22;1438;50.922;6.704;2022-10-18T10:51:12;17.40;99.90
2861;DHT22;1438;50.922;6.704;2022-10-18T10:56:32;17.50;99.90
2861;DHT22;1438;50.922;6.704;2022-10-18T10:59:16;17.40;99.90
2861;DHT22;1438;50.922;6.704;2022-10-18T11:01:43;17.40;99.90
2861;DHT22;1438;50.922;6.704;2022-10-18T11:04:31;17.50;99.90
2861;DHT22;1438;50.922;6.704;2022-10-18T11:09:35;17.70;99.90
2861;DHT22;1438;50.922;6.704;2022-10-18T11:12:25;17.60;99.90
2861;DHT22;1438;50.922;6.704;2022-10-18T11:17:30;17.90;99.90
2861;DHT22;1438;50.922;6.704;2022-10-18T11:22:27;17.80;99.90
2861;DHT22;1438;50.922;6.704;2022-10-18T11:24:55;17.70;99.90
2861;DHT22;1438;50.922;6.704;2022-10-18T11:27:26;17.60;99.90
2861;DHT22;1438;50.922;6.704;2022-10-18T11:30:09;17.60;99.90
2861;DHT22;1438;50.922;6.704;2022-10-18T11:43:45;17.60;99.90
2861;DHT22;1438;50.922;6.704;2022-10-18T11:46:32;17.60;99.90
2861;DHT22;1438;50.922;6.704;2022-10-18T11:52:12;17.90;99.90
2861;DHT22;1438;50.922;6.704;2022-10-18T12:03:12;18.50;99.90
2861;DHT22;1438;50.922;6.704;2022-10-18T12:05:42;19.10;99.90
2861;DHT22;1438;50.922;6.704;2022-10-18T12:08:14;19.50;99.90
2861;DHT22;1438;50.922;6.704;2022-10-18T12:10:43;19.90;99.90
2861;DHT22;1438;50.922;6.704;2022-10-18T12:13:28;20.00;99.90
2861;DHT22;1438;50.922;6.704;2022-10-18T12:15:56;20.10;99.90
2861;DHT22;1438;50.922;6.704;2022-10-18T12:18:23;20.00;99.90
2861;DHT22;1438;50.922;6.704;2022-10-18T12:20:57;19.80;99.90
2861;DHT22;1438;50.922;6.704;2022-10-18T12:23:37;19.20;99.90
2861;DHT22;1438;50.922;6.704;2022-10-18T12:26:06;18.80;99.90
2861;DHT22;1438;50.922;6.704;2022-10-18T12:31:27;18.40;99.90
2861;DHT22;1438;50.922;6.704;2022-10-18T12:34:01;18.30;99.90
2861;DHT22;1438;50.922;6.704;2022-10-18T12:39:08;18.70;99.90
2861;DHT22;1438;50.922;6.704;2022-10-18T12:41:35;18.70;99.90
2861;DHT22;1438;50.922;6.704;2022-10-18T12:44:05;19.00;99.90
2861;DHT22;1438;50.922;6.704;2022-10-18T12:46:51;19.30;99.90
2861;DHT22;1438;50.922;6.704;2022-10-18T12:49:31;19.80;99.90
2861;DHT22;1438;50.922;6.704;2022-10-18T12:52:03;20.00;99.90
2861;DHT22;1438;50.922;6.704;2022-10-18T12:54:34;20.00;99.90
2861;DHT22;1438;50.922;6.704;2022-10-18T12:57:01;20.10;99.90
2861;DHT22;1438;50.922;6.704;2022-10-18T13:09:27;19.10;99.90
2861;DHT22;1438;50.922;6.704;2022-10-18T13:15:14;19.30;99.90
2861;DHT22;1438;50.922;6.704;2022-10-18T13:17:54;19.90;99.90
2861;DHT22;1438;50.922;6.704;2022-10-18T13:20:37;20.60;99.90
2861;DHT22;1438;50.922;6.704;2022-10-18T13:28:31;21.50;99.90
2861;DHT22;1438;50.922;6.704;2022-10-18T13:31:20;21.40;99.90
2861;DHT22;1438;50.922;6.704;2022-10-18T13:33:47;21.30;99.90
2861;DHT22;1438;50.922;6.704;2022-10-18T13:41:21;20.60;99.90
2861;DHT22;1438;50.922;6.704;2022-10-18T13:43:56;20.70;99.90
2861;DHT22;1438;50.922;6.704;2022-10-18T13:49:26;20.80;99.90
2861;DHT22;1438;50.922;6.704;2022-10-18T14:06:05;21.90;99.90
2861;DHT22;1438;50.922;6.704;2022-10-18T14:11:26;22.00;99.90
2861;DHT22;1438;50.922;6.704;2022-10-18T14:14:18;22.10;99.90
2861;DHT22;1438;50.922;6.704;2022-10-18T14:17:05;22.10;99.90
2861;DHT22;1438;50.922;6.704;2022-10-18T14:22:41;22.20;99.90
2861;DHT22;1438;50.922;6.704;2022-10-18T14:27:45;22.60;99.90
2861;DHT22;1438;50.922;6.704;2022-10-18T14:32:42;22.50;99.90
2861;DHT22;1438;50.922;6.704;2022-10-18T14:35:20;22.70;99.90
2861;DHT22;1438;50.922;6.704;2022-10-18T14:37:48;22.90;99.90
2861;DHT22;1438;50.922;6.704;2022-10-18T14:40:37;23.00;99.90
2861;DHT22;1438;50.922;6.704;2022-10-18T14:45:31;23.20;99.90
2861;DHT22;1438;50.922;6.704;2022-10-18T14:50:32;23.10;99.90
2861;DHT22;1438;50.922;6.704;2022-10-18T14:53:07;23.00;99.90
2861;DHT22;1438;50.922;6.704;2022-10-18T14:55:34;22.70;99.90
2861;DHT22;1438;50.922;6.704;2022-10-18T14:58:01;22.10;99.90
2861;DHT22;1438;50.922;6.704;2022-10-18T15:00:35;21.90;99.90
2861;DHT22;1438;50.922;6.704;2022-10-18T15:03:03;21.80;99.90
2861;DHT22;1438;50.922;6.704;2022-10-18T15:05:29;21.80;99.90
2861;DHT22;1438;50.922;6.704;2022-10-18T15:07:55;21.70;99.90
2861;DHT22;1438;50.922;6.704;2022-10-18T15:10:30;21.80;99.90
2861;DHT22;1438;50.922;6.704;2022-10-18T15:12:57;21.70;99.90
2861;DHT22;1438;50.922;6.704;2022-10-18T15:15:29;21.70;99.90
2861;DHT22;1438;50.922;6.704;2022-10-18T15:17:57;21.80;99.90
2861;DHT22;1438;50.922;6.704;2022-10-18T15:22:51;21.70;99.90
2861;DHT22;1438;50.922;6.704;2022-10-18T15:25:27;21.80;99.90
2861;DHT22;1438;50.922;6.704;2022-10-18T15:27:58;21.90;99.90
2861;DHT22;1438;50.922;6.704;2022-10-18T15:30:37;21.80;99.90
2861;DHT22;1438;50.922;6.704;2022-10-18T15:33:04;21.40;99.90
2861;DHT22;1438;50.922;6.704;2022-10-18T15:35:35;21.20;99.90
2861;DHT22;1438;50.922;6.704;2022-10-18T15:40:46;20.60;99.90
2861;DHT22;1438;50.922;6.704;2022-10-18T15:45:55;20.20;99.90
2861;DHT22;1438;50.922;6.704;2022-10-18T15:48:34;20.10;99.90
2861;DHT22;1438;50.922;6.704;2022-10-18T15:51:03;19.90;99.90
2861;DHT22;1438;50.922;6.704;2022-10-18T15:56:02;19.80;99.90
2861;DHT22;1438;50.922;6.704;2022-10-18T15:58:48;19.60;99.90
2861;DHT22;1438;50.922;6.704;2022-10-18T16:01:21;19.60;99.90
2861;DHT22;1438;50.922;6.704;2022-10-18T16:03:48;19.40;99.90
2861;DHT22;1438;50.922;6.704;2022-10-18T16:06:15;19.20;99.90
2861;DHT22;1438;50.922;6.704;2022-10-18T16:08:49;19.20;99.90
2861;DHT22;1438;50.922;6.704;2022-10-18T16:11:18;19.00;99.90
2861;DHT22;1438;50.922;6.704;2022-10-18T16:13:44;18.90;99.90
2861;DHT22;1438;50.922;6.704;2022-10-18T16:16:23;18.70;99.90
2861;DHT22;1438;50.922;6.704;2022-10-18T16:18:49;18.50;99.90
2861;DHT22;1438;50.922;6.704;2022-10-18T16:21:21;18.30;99.90
2861;DHT22;1438;50.922;6.704;2022-10-18T16:23:48;18.20;99.90
2861;DHT22;1438;50.922;6.704;2022-10-18T16:26:15;18.10;99.90
2861;DHT22;1438;50.922;6.704;2022-10-18T16:28:41;17.90;99.90
2861;DHT22;1438;50.922;6.704;2022-10-18T16:31:08;17.80;99.90
2861;DHT22;1438;50.922;6.704;2022-10-18T16:33:34;17.50;99.90
2861;DHT22;1438;50.922;6.704;2022-10-18T16:36:01;17.40;99.90
2861;DHT22;1438;50.922;6.704;2022-10-18T16:38:31;17.30;99.90
2861;DHT22;1438;50.922;6.704;2022-10-18T16:40:57;17.20;99.90
2861;DHT22;1438;50.922;6.704;2022-10-18T16:43:23;17.10;99.90
2861;DHT22;1438;50.922;6.704;2022-10-18T16:45:51;17.00;99.90
2861;DHT22;1438;50.922;6.704;2022-10-18T16:48:19;16.90;99.90
2861;DHT22;1438;50.922;6.704;2022-10-18T16:50:46;16.80;99.90
2861;DHT22;1438;50.922;6.704;2022-10-18T16:53:12;16.70;99.90
2861;DHT22;1438;50.922;6.704;2022-10-18T16:55:39;16.70;99.90
2861;DHT22;1438;50.922;6.704;2022-10-18T16:58:06;16.40;99.90
2861;DHT22;1438;50.922;6.704;2022-10-18T17:00:32;16.00;99.90
2861;DHT22;1438;50.922;6.704;2022-10-18T17:02:58;15.90;99.90
2861;DHT22;1438;50.922;6.704;2022-10-18T17:05:24;15.70;99.90
2861;DHT22;1438;50.922;6.704;2022-10-18T17:07:49;15.60;99.90
2861;DHT22;1438;50.922;6.704;2022-10-18T17:10:19;15.60;99.90
2861;DHT22;1438;50.922;6.704;2022-10-18T17:12:44;15.60;99.90
2861;DHT22;1438;50.922;6.704;2022-10-18T17:15:10;15.40;99.90
2861;DHT22;1438;50.922;6.704;2022-10-18T17:17:37;15.40;99.90
2861;DHT22;1438;50.922;6.704;2022-10-18T17:20:04;15.30;99.90
2861;DHT22;1438;50.922;6.704;2022-10-18T17:22:31;15.20;99.90
2861;DHT22;1438;50.922;6.704;2022-10-18T17:24:56;15.20;99.90
2861;DHT22;1438;50.922;6.704;2022-10-18T17:27:22;15.10;99.90
2861;DHT22;1438;50.922;6.704;2022-10-18T17:29:48;15.10;99.90
2861;DHT22;1438;50.922;6.704;2022-10-18T17:32:14;15.00;99.90
2861;DHT22;1438;50.922;6.704;2022-10-18T17:34:39;15.00;99.90
2861;DHT22;1438;50.922;6.704;2022-10-18T17:37:05;14.90;99.90
2861;DHT22;1438;50.922;6.704;2022-10-18T17:39:31;14.80;99.90
2861;DHT22;1438;50.922;6.704;2022-10-18T17:41:57;14.70;99.90
2861;DHT22;1438;50.922;6.704;2022-10-18T17:44:23;14.70;99.90
2861;DHT22;1438;50.922;6.704;2022-10-18T17:46:49;14.60;99.90
2861;DHT22;1438;50.922;6.704;2022-10-18T17:49:15;14.50;99.90
2861;DHT22;1438;50.922;6.704;2022-10-18T17:51:41;14.40;99.90
2861;DHT22;1438;50.922;6.704;2022-10-18T17:54:09;14.40;99.90
2861;DHT22;1438;50.922;6.704;2022-10-18T17:56:34;14.30;99.90
2861;DHT22;1438;50.922;6.704;2022-10-18T17:59:00;14.20;99.90
2861;DHT22;1438;50.922;6.704;2022-10-18T18:01:26;14.10;99.90
2861;DHT22;1438;50.922;6.704;2022-10-18T18:03:56;14.10;99.90
2861;DHT22;1438;50.922;6.704;2022-10-18T18:06:24;14.00;99.90
2861;DHT22;1438;50.922;6.704;2022-10-18T18:08:56;13.90;99.90
2861;DHT22;1438;50.922;6.704;2022-10-18T18:11:24;13.80;99.90
2861;DHT22;1438;50.922;6.704;2022-10-18T18:13:49;13.80;99.90
2861;DHT22;1438;50.922;6.704;2022-10-18T18:16:17;13.80;99.90
2861;DHT22;1438;50.922;6.704;2022-10-18T18:18:45;13.60;99.90
2861;DHT22;1438;50.922;6.704;2022-10-18T18:21:11;13.50;99.90
2861;DHT22;1438;50.922;6.704;2022-10-18T18:23:36;13.50;99.90
2861;DHT22;1438;50.922;6.704;2022-10-18T18:26:03;13.40;99.90
2861;DHT22;1438;50.922;6.704;2022-10-18T18:28:28;13.20;99.90
2861;DHT22;1438;50.922;6.704;2022-10-18T18:30:54;13.30;99.90
2861;DHT22;1438;50.922;6.704;2022-10-18T18:33:20;13.20;99.90
2861;DHT22;1438;50.922;6.704;2022-10-18T18:35:55;13.20;99.90
2861;DHT22;1438;50.922;6.704;2022-10-18T18:38:21;13.10;99.90
2861;DHT22;1438;50.922;6.704;2022-10-18T18:40:47;13.00;99.90
2861;DHT22;1438;50.922;6.704;2022-10-18T18:43:12;13.00;99.90
2861;DHT22;1438;50.922;6.704;2022-10-18T18:45:38;12.90;99.90
2861;DHT22;1438;50.922;6.704;2022-10-18T18:48:04;12.80;99.90
2861;DHT22;1438;50.922;6.704;2022-10-18T18:50:29;12.70;99.90